createdAt,value
2018-11-03T00:00:27.844Z,24.63
2018-11-03T00:02:55.940Z,22.63
2018-11-03T00:05:24.013Z,23.13
2018-11-03T00:07:52.133Z,24.10
2018-11-03T00:10:20.275Z,22.97
2018-11-03T00:12:48.599Z,24.27
2018-11-03T00:15:16.788Z,22.10
2018-11-03T00:17:44.943Z,23.87
2018-11-03T00:20:13.091Z,23.27
2018-11-03T00:22:41.275Z,23.37
2018-11-03T00:25:10.211Z,24.40
2018-11-03T00:27:38.313Z,25.10
2018-11-03T00:30:08.435Z,24.03
2018-11-03T00:32:36.602Z,23.37
2018-11-03T00:35:04.833Z,23.53
2018-11-03T00:37:33.035Z,23.50
2018-11-03T00:40:01.132Z,23.47
2018-11-03T00:42:29.428Z,24.40
2018-11-03T00:44:57.596Z,23.77
2018-11-03T00:47:25.780Z,23.60
2018-11-03T00:50:57.299Z,23.03
2018-11-03T00:53:25.391Z,24.83
2018-11-03T00:55:53.615Z,22.80
2018-11-03T00:58:21.736Z,22.23
2018-11-03T01:00:49.933Z,23.10
2018-11-03T01:03:18.108Z,24.07
2018-11-03T01:05:46.267Z,23.97
2018-11-03T01:08:14.448Z,23.47
2018-11-03T01:10:42.648Z,22.27
2018-11-03T01:13:10.784Z,23.63
2018-11-03T01:15:38.959Z,23.07
2018-11-03T01:18:07.152Z,22.23
2018-11-03T01:20:35.343Z,22.80
2018-11-03T01:23:03.498Z,22.53
2018-11-03T01:25:31.666Z,24.13
2018-11-03T01:27:59.855Z,22.23
2018-11-03T01:30:28.004Z,23.03
2018-11-03T01:32:56.176Z,21.77
2018-11-03T01:35:24.306Z,23.13
2018-11-03T01:37:52.435Z,23.17
2018-11-03T01:40:20.635Z,22.80
2018-11-03T01:42:48.783Z,23.10
2018-11-03T01:45:16.935Z,21.87
2018-11-03T01:47:45.072Z,22.67
2018-11-03T01:50:13.222Z,21.67
2018-11-03T01:52:41.868Z,21.17
2018-11-03T01:55:09.939Z,21.50
2018-11-03T01:57:38.537Z,21.97
2018-11-03T02:00:07.735Z,20.40
2018-11-03T02:02:35.944Z,22.27
2018-11-03T02:05:04.104Z,20.57
2018-11-03T02:07:32.272Z,19.60
2018-11-03T02:10:00.448Z,21.37
2018-11-03T02:12:28.627Z,21.43
2018-11-03T02:14:56.777Z,21.90
2018-11-03T02:17:24.974Z,19.77
2018-11-03T02:19:53.148Z,21.40
2018-11-03T02:22:21.332Z,20.47
2018-11-03T02:24:49.516Z,20.50
2018-11-03T02:27:17.651Z,20.00
2018-11-03T02:29:45.839Z,20.67
2018-11-03T02:32:14.017Z,23.23
2018-11-03T02:34:42.217Z,21.30
2018-11-03T02:37:10.397Z,21.13
2018-11-03T02:39:38.540Z,21.30
2018-11-03T02:42:06.707Z,21.33
2018-11-03T02:44:34.877Z,21.37
2018-11-03T02:47:03.072Z,19.90
2018-11-03T02:49:31.243Z,19.23
2018-11-03T02:51:59.419Z,20.63
2018-11-03T02:54:27.642Z,19.07
2018-11-03T02:56:55.781Z,20.70
2018-11-03T02:59:23.990Z,19.87
2018-11-03T03:01:52.116Z,20.77
2018-11-03T03:04:20.284Z,19.47
2018-11-03T03:06:48.513Z,20.93
2018-11-03T03:09:16.697Z,18.90
2018-11-03T03:11:44.917Z,18.77
2018-11-03T03:14:13.139Z,19.30
2018-11-03T03:16:41.337Z,21.03
2018-11-03T03:19:09.451Z,19.23
2018-11-03T03:21:37.628Z,19.97
2018-11-03T03:24:05.798Z,19.77
2018-11-03T03:26:33.880Z,20.30
2018-11-03T03:29:02.093Z,20.30
2018-11-03T03:31:30.247Z,19.27
2018-11-03T03:33:58.479Z,20.27
2018-11-03T03:36:26.641Z,19.47
2018-11-03T03:38:54.824Z,20.43
2018-11-03T03:41:23.030Z,19.83
2018-11-03T03:43:51.172Z,21.73
2018-11-03T03:46:19.360Z,20.90
2018-11-03T03:48:47.526Z,21.97
2018-11-03T03:51:15.735Z,21.60
2018-11-03T03:53:43.900Z,20.20
2018-11-03T03:56:12.035Z,21.80
2018-11-03T03:58:40.418Z,21.53
2018-11-03T04:01:08.609Z,20.10
2018-11-03T04:03:36.964Z,21.37
2018-11-03T04:06:05.185Z,22.10
2018-11-03T04:08:33.343Z,21.60
2018-11-03T04:11:01.506Z,20.70
2018-11-03T04:13:29.680Z,21.30
2018-11-03T04:15:57.888Z,21.03
2018-11-03T04:18:26.019Z,22.03
2018-11-03T04:20:54.164Z,21.40
2018-11-03T04:23:22.294Z,22.10
2018-11-03T04:25:50.433Z,20.47
2018-11-03T04:28:18.657Z,22.00
2018-11-03T04:30:46.816Z,21.50
2018-11-03T04:33:14.962Z,21.60
2018-11-03T04:35:43.147Z,22.40
2018-11-03T04:38:11.333Z,23.57
2018-11-03T04:40:39.501Z,22.23
2018-11-03T04:43:07.694Z,21.93
2018-11-03T04:45:36.021Z,23.40
2018-11-03T04:48:04.047Z,21.43
2018-11-03T04:50:32.243Z,23.00
2018-11-03T04:53:00.365Z,22.00
2018-11-03T04:55:28.549Z,22.80
2018-11-03T04:57:56.733Z,22.47
2018-11-03T05:00:24.921Z,23.57
2018-11-03T05:02:53.068Z,22.70
2018-11-03T05:05:21.217Z,24.47
2018-11-03T05:07:49.311Z,23.33
2018-11-03T05:10:17.551Z,23.43
2018-11-03T05:12:45.654Z,22.80
2018-11-03T05:15:13.846Z,23.63
2018-11-03T05:17:41.998Z,22.10
2018-11-03T05:20:10.055Z,23.67
2018-11-03T05:22:38.157Z,24.40
2018-11-03T05:25:06.335Z,23.30
2018-11-03T05:27:34.484Z,23.83
2018-11-03T05:30:02.599Z,24.67
2018-11-03T05:32:30.755Z,22.67
2018-11-03T05:34:58.927Z,25.00
2018-11-03T05:37:27.132Z,23.80
2018-11-03T05:39:55.291Z,23.97
2018-11-03T05:42:23.454Z,23.73
2018-11-03T05:44:51.666Z,25.10
2018-11-03T05:47:19.794Z,23.03
2018-11-03T05:49:47.969Z,25.37
2018-11-03T05:52:16.206Z,24.40
2018-11-03T05:54:44.373Z,23.47
2018-11-03T05:57:12.492Z,24.30
2018-11-03T05:59:40.684Z,24.17
2018-11-03T06:02:08.847Z,23.40
2018-11-03T06:04:37.053Z,23.83
2018-11-03T06:07:05.193Z,24.67
2018-11-03T06:09:33.403Z,23.07
2018-11-03T06:12:01.536Z,23.70
2018-11-03T06:14:29.736Z,23.63
2018-11-03T06:16:57.879Z,23.83
2018-11-03T06:19:26.077Z,24.17
2018-11-03T06:21:54.241Z,25.17
2018-11-03T06:24:22.601Z,21.73
2018-11-03T06:26:50.807Z,24.30
2018-11-03T06:29:18.988Z,23.37
2018-11-03T06:31:47.200Z,24.23
2018-11-03T06:34:15.327Z,24.00
2018-11-03T06:36:43.503Z,24.20
2018-11-03T06:39:11.681Z,25.20
2018-11-03T06:41:39.820Z,23.73
2018-11-03T06:44:07.897Z,24.80
2018-11-03T06:46:36.133Z,24.43
2018-11-03T06:49:09.924Z,24.23
2018-11-03T06:51:38.047Z,23.53
2018-11-03T06:54:06.176Z,23.90
2018-11-03T06:56:34.832Z,22.20
2018-11-03T06:59:03.310Z,24.40
2018-11-03T07:01:31.643Z,23.53
2018-11-03T07:03:59.751Z,23.17
2018-11-03T07:06:27.924Z,22.83
2018-11-03T07:08:56.084Z,23.00
2018-11-03T07:11:24.208Z,24.80
2018-11-03T07:13:52.517Z,24.87
2018-11-03T07:16:20.619Z,22.00
2018-11-03T07:18:48.820Z,25.03
2018-11-03T07:21:16.968Z,23.43
2018-11-03T07:23:45.140Z,30.53
2018-11-03T07:26:13.222Z,25.70
2018-11-03T07:28:41.375Z,24.27
2018-11-03T07:31:09.463Z,26.27
2018-11-03T07:33:37.685Z,28.30
2018-11-03T07:36:05.835Z,31.03
2018-11-03T07:38:34.046Z,31.77
2018-11-03T07:41:02.304Z,26.03
2018-11-03T07:43:30.388Z,24.37
2018-11-03T07:45:58.524Z,24.43
2018-11-03T07:48:26.745Z,26.23
2018-11-03T07:50:54.910Z,25.53
2018-11-03T07:53:23.041Z,26.27
2018-11-03T07:55:51.203Z,26.87
2018-11-03T07:58:19.399Z,26.60
2018-11-03T08:00:49.162Z,26.30
2018-11-03T08:03:20.819Z,25.93
2018-11-03T08:05:49.788Z,28.57
2018-11-03T08:08:18.640Z,27.13
2018-11-03T08:10:47.433Z,28.60
2018-11-03T08:13:15.615Z,28.50
2018-11-03T08:15:43.834Z,28.77
2018-11-03T08:18:11.939Z,29.13
2018-11-03T08:20:40.131Z,27.90
2018-11-03T08:23:08.344Z,29.27
2018-11-03T08:25:36.499Z,32.83
2018-11-03T08:28:05.312Z,36.00
2018-11-03T08:30:33.415Z,34.33
2018-11-03T08:33:01.724Z,29.70
2018-11-03T08:35:29.888Z,28.07
2018-11-03T08:37:58.085Z,29.23
2018-11-03T08:40:26.219Z,28.20
2018-11-03T08:42:54.307Z,27.63
2018-11-03T08:45:22.491Z,27.93
2018-11-03T08:47:51.413Z,30.60
2018-11-03T08:50:19.630Z,28.67
2018-11-03T08:52:47.769Z,35.27
2018-11-03T08:55:15.963Z,30.83
2018-11-03T08:57:44.091Z,29.07
2018-11-03T09:00:13.567Z,29.70
2018-11-03T09:02:43.878Z,31.93
2018-11-03T09:05:12.605Z,30.70
2018-11-03T09:07:41.823Z,28.83
2018-11-03T09:10:14.128Z,30.90
2018-11-03T09:12:42.395Z,31.10
2018-11-03T09:15:12.207Z,32.30
2018-11-03T09:17:41.204Z,28.77
2018-11-03T09:20:10.572Z,30.97
2018-11-03T09:22:39.344Z,31.00
2018-11-03T09:25:10.280Z,31.53
2018-11-03T09:27:39.276Z,27.93
2018-11-03T09:30:10.067Z,30.60
2018-11-03T09:32:38.236Z,35.03
2018-11-03T09:35:07.202Z,35.30
2018-11-03T09:37:35.571Z,30.17
2018-11-03T09:40:04.147Z,28.80
2018-11-03T09:42:32.502Z,28.13
2018-11-03T09:45:00.739Z,30.77
2018-11-03T09:47:28.944Z,29.00
2018-11-03T09:49:57.152Z,28.03
2018-11-03T09:52:25.855Z,32.37
2018-11-03T09:54:54.200Z,30.40
2018-11-03T09:57:22.474Z,28.97
2018-11-03T09:59:50.923Z,30.07
2018-11-03T10:02:19.232Z,29.13
2018-11-03T10:04:47.451Z,30.67
2018-11-03T10:07:15.722Z,28.67
2018-11-03T10:09:43.899Z,30.10
2018-11-03T10:12:12.116Z,30.40
2018-11-03T10:14:40.356Z,30.67
2018-11-03T10:17:08.653Z,36.67
2018-11-03T10:19:37.720Z,36.00
2018-11-03T10:23:09.674Z,31.20
2018-11-03T10:25:38.131Z,29.57
2018-11-03T10:28:06.362Z,30.90
2018-11-03T10:30:34.384Z,30.00
2018-11-03T10:33:02.572Z,31.80
2018-11-03T10:35:30.637Z,31.00
2018-11-03T10:37:58.804Z,30.63
2018-11-03T10:40:26.988Z,30.57
2018-11-03T10:42:55.213Z,31.90
2018-11-03T10:45:23.470Z,32.53
2018-11-03T10:47:51.597Z,31.13
2018-11-03T10:50:19.795Z,30.47
2018-11-03T10:52:48.389Z,31.70
2018-11-03T10:55:18.902Z,34.57
2018-11-03T10:57:47.956Z,33.93
2018-11-03T11:00:25.261Z,35.57
2018-11-03T11:02:59.982Z,38.17
2018-11-03T11:05:34.233Z,32.20
2018-11-03T11:08:07.653Z,35.47
2018-11-03T11:10:41.307Z,34.40
2018-11-03T11:13:14.728Z,33.63
2018-11-03T11:15:42.845Z,31.97
2018-11-03T11:18:11.132Z,33.70
2018-11-03T11:20:39.501Z,31.37
2018-11-03T11:23:07.700Z,32.30
2018-11-03T11:25:35.885Z,31.97
2018-11-03T11:28:04.130Z,32.17
2018-11-03T11:30:37.504Z,32.67
2018-11-03T11:33:08.611Z,32.50
2018-11-03T11:35:36.675Z,31.70
2018-11-03T11:38:05.485Z,32.60
2018-11-03T11:40:33.777Z,31.20
2018-11-03T11:43:02.225Z,31.97
2018-11-03T11:45:30.415Z,32.93
2018-11-03T11:47:58.617Z,32.10
2018-11-03T11:50:26.740Z,31.27
2018-11-03T11:52:54.811Z,32.60
2018-11-03T11:55:22.913Z,30.80
2018-11-03T11:57:51.117Z,31.20
2018-11-03T12:00:19.460Z,34.27
2018-11-03T12:02:47.519Z,36.70
2018-11-03T12:05:15.628Z,32.03
2018-11-03T12:07:43.728Z,30.40
2018-11-03T12:10:11.955Z,34.07
2018-11-03T12:12:40.035Z,31.27
2018-11-03T12:15:08.837Z,30.53
2018-11-03T12:17:38.061Z,31.63
2018-11-03T12:20:06.457Z,34.20
2018-11-03T12:22:34.547Z,31.53
2018-11-03T12:25:02.757Z,31.20
2018-11-03T12:27:30.880Z,31.03
2018-11-03T12:29:59.068Z,32.33
2018-11-03T12:32:27.553Z,32.50
2018-11-03T12:34:55.683Z,31.13
2018-11-03T12:37:23.802Z,32.27
2018-11-03T12:39:51.907Z,32.50
2018-11-03T12:42:20.017Z,31.80
2018-11-03T12:44:48.223Z,32.53
2018-11-03T12:47:16.424Z,32.47
2018-11-03T12:49:44.593Z,32.70
2018-11-03T12:52:12.762Z,33.63
2018-11-03T12:54:40.846Z,30.20
2018-11-03T12:57:08.956Z,31.50
2018-11-03T12:59:37.049Z,30.20
2018-11-03T13:02:05.807Z,32.80
2018-11-03T13:04:33.903Z,33.13
2018-11-03T13:07:01.972Z,32.00
2018-11-03T13:09:30.139Z,33.10
2018-11-03T13:11:58.305Z,35.73
2018-11-03T13:14:26.392Z,35.00
2018-11-03T13:16:54.656Z,32.10
2018-11-03T13:19:23.320Z,31.20
2018-11-03T13:21:51.508Z,35.47
2018-11-03T13:24:19.672Z,32.57
2018-11-03T13:26:47.779Z,33.70
2018-11-03T13:29:15.895Z,34.83
2018-11-03T13:31:44.072Z,32.20
2018-11-03T13:34:12.184Z,32.27
2018-11-03T13:36:40.293Z,33.53
2018-11-03T13:39:09.301Z,31.87
2018-11-03T13:41:37.498Z,32.63
2018-11-03T13:44:05.720Z,34.97
2018-11-03T13:46:33.810Z,33.93
2018-11-03T13:49:02.297Z,32.27
2018-11-03T13:51:30.417Z,30.07
2018-11-03T13:53:58.547Z,30.60
2018-11-03T13:56:26.641Z,31.47
2018-11-03T13:58:54.918Z,32.10
2018-11-03T14:01:23.193Z,31.93
2018-11-03T14:03:51.296Z,31.57
2018-11-03T14:06:19.395Z,31.83
2018-11-03T14:08:47.503Z,35.00
2018-11-03T14:11:16.757Z,33.30
2018-11-03T14:13:44.865Z,37.60
2018-11-03T14:16:12.999Z,33.13
2018-11-03T14:18:41.567Z,30.43
2018-11-03T14:21:09.900Z,30.40
2018-11-03T14:23:38.134Z,28.77
2018-11-03T14:26:06.485Z,30.97
2018-11-03T14:28:34.712Z,29.30
2018-11-03T14:31:02.832Z,30.43
2018-11-03T14:33:31.036Z,30.03
2018-11-03T14:35:59.240Z,29.50
2018-11-03T14:38:27.679Z,29.43
2018-11-03T14:40:55.819Z,30.30
2018-11-03T14:43:24.068Z,29.77
2018-11-03T14:45:52.337Z,30.67
2018-11-03T14:48:20.573Z,30.50
2018-11-03T14:50:48.742Z,30.00
2018-11-03T14:53:17.026Z,29.10
2018-11-03T14:55:45.235Z,32.87
2018-11-03T14:58:13.352Z,36.93
2018-11-03T15:00:41.557Z,28.97
2018-11-03T15:03:09.684Z,30.27
2018-11-03T15:05:37.875Z,29.13
2018-11-03T15:08:06.128Z,28.77
2018-11-03T15:10:34.789Z,29.43
2018-11-03T15:13:03.119Z,30.23
2018-11-03T15:15:31.233Z,42.13
2018-11-03T15:17:59.520Z,34.67
2018-11-03T15:20:27.875Z,37.70
2018-11-03T15:22:56.331Z,34.17
2018-11-03T15:25:24.722Z,28.10
2018-11-03T15:27:53.088Z,32.07
2018-11-03T15:30:21.291Z,30.87
2018-11-03T15:32:49.513Z,27.67
2018-11-03T15:35:17.694Z,27.63
2018-11-03T15:37:45.835Z,28.80
2018-11-03T15:40:15.294Z,30.03
2018-11-03T15:42:44.082Z,28.20
2018-11-03T15:45:14.492Z,27.60
2018-11-03T15:47:43.073Z,29.27
2018-11-03T15:50:11.719Z,27.73
2018-11-03T15:52:39.924Z,28.20
2018-11-03T15:55:08.146Z,28.00
2018-11-03T15:57:36.579Z,32.70
2018-11-03T16:00:06.323Z,43.00
2018-11-03T16:02:34.438Z,28.80
2018-11-03T16:05:02.711Z,27.27
2018-11-03T16:07:31.072Z,25.77
2018-11-03T16:09:59.301Z,28.33
2018-11-03T16:12:27.658Z,25.20
2018-11-03T16:14:55.812Z,26.80
2018-11-03T16:17:24.611Z,26.33
2018-11-03T16:19:52.805Z,26.80
2018-11-03T16:22:21.063Z,25.17
2018-11-03T16:24:49.294Z,24.30
2018-11-03T16:27:17.483Z,25.63
2018-11-03T16:29:45.779Z,24.87
2018-11-03T16:32:14.039Z,25.97
2018-11-03T16:34:42.281Z,24.60
2018-11-03T16:37:10.388Z,25.90
2018-11-03T16:39:38.475Z,25.00
2018-11-03T16:42:06.718Z,26.03
2018-11-03T16:44:35.003Z,25.10
2018-11-03T16:47:03.492Z,25.37
2018-11-03T16:49:31.688Z,24.00
2018-11-03T16:51:59.984Z,25.87
2018-11-03T16:54:29.672Z,24.83
2018-11-03T16:57:00.468Z,27.33
2018-11-03T16:59:31.264Z,30.40
2018-11-03T17:01:59.438Z,24.93
2018-11-03T17:04:28.671Z,27.73
2018-11-03T17:06:57.987Z,26.90
2018-11-03T17:09:26.291Z,24.47
2018-11-03T17:11:54.480Z,27.70
2018-11-03T17:14:22.678Z,24.87
2018-11-03T17:16:50.869Z,25.13
2018-11-03T17:19:19.904Z,25.00
2018-11-03T17:21:48.845Z,26.53
2018-11-03T17:24:17.063Z,26.07
2018-11-03T17:26:45.275Z,25.50
2018-11-03T17:29:13.409Z,27.87
2018-11-03T17:31:41.589Z,24.60
2018-11-03T17:34:09.910Z,25.03
2018-11-03T17:36:38.013Z,27.97
2018-11-03T17:39:08.139Z,26.27
2018-11-03T17:41:36.365Z,26.27
2018-11-03T17:44:04.668Z,28.17
2018-11-03T17:46:32.853Z,30.67
2018-11-03T17:49:01.004Z,27.00
2018-11-03T17:51:29.256Z,28.63
2018-11-03T17:53:57.451Z,26.77
2018-11-03T17:56:25.805Z,27.40
2018-11-03T17:58:54.028Z,27.93
2018-11-03T18:01:22.416Z,27.93
2018-11-03T18:03:50.612Z,26.00
2018-11-03T18:06:18.897Z,26.37
2018-11-03T18:08:47.077Z,27.37
2018-11-03T18:11:15.422Z,26.50
2018-11-03T18:13:43.619Z,27.20
2018-11-03T18:16:11.692Z,26.90
2018-11-03T18:18:40.399Z,27.17
2018-11-03T18:21:08.704Z,27.23
2018-11-03T18:23:37.303Z,28.10
2018-11-03T18:26:05.517Z,27.40
2018-11-03T18:28:33.819Z,27.20
2018-11-03T18:31:02.092Z,28.40
2018-11-03T18:33:30.363Z,25.67
2018-11-03T18:35:58.452Z,27.50
2018-11-03T18:38:26.684Z,26.13
2018-11-03T18:40:54.884Z,26.30
2018-11-03T18:43:23.641Z,26.67
2018-11-03T18:45:51.955Z,29.10
2018-11-03T18:48:20.424Z,26.53
2018-11-03T18:50:48.607Z,27.50
2018-11-03T18:53:16.811Z,26.13
2018-11-03T18:55:45.337Z,27.20
2018-11-03T18:58:14.612Z,26.73
2018-11-03T19:01:46.062Z,26.17
2018-11-03T19:04:14.728Z,23.43
2018-11-03T19:06:43.263Z,27.00
2018-11-03T19:09:11.738Z,25.23
2018-11-03T19:11:39.885Z,24.90
2018-11-03T19:14:08.171Z,26.10
2018-11-03T19:16:36.471Z,25.80
2018-11-03T19:19:05.011Z,24.80
2018-11-03T19:21:33.297Z,24.70
2018-11-03T19:24:01.467Z,25.93
2018-11-03T19:26:29.645Z,26.60
2018-11-03T19:28:57.783Z,34.67
2018-11-03T19:31:25.946Z,27.47
2018-11-03T19:33:54.172Z,25.77
2018-11-03T19:36:22.441Z,36.10
2018-11-03T19:38:50.751Z,25.20
2018-11-03T19:41:18.954Z,25.20
2018-11-03T19:43:47.245Z,25.90
2018-11-03T19:46:15.684Z,25.40
2018-11-03T19:48:43.883Z,26.73
2018-11-03T19:51:12.155Z,26.53
2018-11-03T19:53:40.331Z,26.00
2018-11-03T19:56:08.775Z,26.23
2018-11-03T19:58:36.940Z,24.40
2018-11-03T20:01:05.465Z,26.70
2018-11-03T20:03:33.721Z,26.57
2018-11-03T20:06:01.829Z,27.00
2018-11-03T20:08:30.029Z,26.20
2018-11-03T20:10:58.195Z,25.40
2018-11-03T20:13:26.480Z,24.53
2018-11-03T20:15:54.641Z,25.00
2018-11-03T20:18:23.449Z,25.00
2018-11-03T20:20:51.656Z,22.97
2018-11-03T20:23:20.093Z,26.00
2018-11-03T20:25:48.262Z,23.20
2018-11-03T20:28:16.473Z,25.57
2018-11-03T20:30:44.881Z,26.00
2018-11-03T20:33:13.067Z,25.73
2018-11-03T20:35:47.698Z,25.47
2018-11-03T20:38:15.976Z,26.50
2018-11-03T20:40:44.299Z,26.03
2018-11-03T20:43:12.479Z,24.53
2018-11-03T20:45:40.738Z,25.07
2018-11-03T20:48:08.864Z,23.00
2018-11-03T20:50:37.415Z,24.50
2018-11-03T20:53:05.948Z,26.00
2018-11-03T20:55:34.253Z,23.30
2018-11-03T20:58:02.572Z,24.57
2018-11-03T21:00:30.677Z,25.63
2018-11-03T21:02:58.898Z,24.50
2018-11-03T21:05:27.046Z,24.20
2018-11-03T21:07:56.052Z,23.50
2018-11-03T21:10:24.211Z,23.10
2018-11-03T21:12:52.383Z,24.83
2018-11-03T21:15:20.744Z,22.63
2018-11-03T21:17:48.931Z,24.40
2018-11-03T21:20:17.263Z,24.97
2018-11-03T21:22:45.414Z,24.17
2018-11-03T21:25:13.658Z,24.60
2018-11-03T21:27:42.823Z,22.60
2018-11-03T21:30:11.869Z,24.77
2018-11-03T21:32:41.453Z,23.90
2018-11-03T21:35:09.641Z,23.47
2018-11-03T21:37:38.205Z,25.10
2018-11-03T21:40:07.157Z,23.70
2018-11-03T21:42:35.309Z,24.77
2018-11-03T21:45:03.622Z,26.20
2018-11-03T21:47:31.732Z,29.40
2018-11-03T21:49:59.903Z,22.30
2018-11-03T21:52:28.238Z,25.00
2018-11-03T21:54:56.476Z,23.87
2018-11-03T21:57:24.669Z,26.07
2018-11-03T21:59:52.808Z,24.33
2018-11-03T22:02:21.086Z,23.23
2018-11-03T22:04:49.244Z,26.40
2018-11-03T22:07:17.577Z,24.37
2018-11-03T22:09:45.663Z,24.40
2018-11-03T22:12:13.916Z,26.20
2018-11-03T22:14:42.036Z,27.00
2018-11-03T22:17:10.223Z,24.93
2018-11-03T22:19:38.412Z,23.43
2018-11-03T22:22:06.584Z,26.03
2018-11-03T22:24:35.724Z,26.27
2018-11-03T22:27:03.876Z,25.07
2018-11-03T22:29:32.032Z,24.60
2018-11-03T22:32:00.254Z,24.40
2018-11-03T22:34:28.400Z,25.73
2018-11-03T22:36:56.643Z,25.80
2018-11-03T22:39:24.807Z,25.97
2018-11-03T22:41:53.199Z,25.00
2018-11-03T22:44:21.367Z,23.53
2018-11-03T22:46:49.677Z,24.23
2018-11-03T22:49:17.868Z,26.37
2018-11-03T22:51:46.093Z,24.43
2018-11-03T22:54:14.213Z,24.50
2018-11-03T22:56:42.311Z,24.17
2018-11-03T22:59:10.732Z,26.20
2018-11-03T23:01:39.058Z,26.40
2018-11-03T23:04:07.268Z,25.90
2018-11-03T23:06:35.523Z,25.07
2018-11-03T23:09:03.640Z,27.07
2018-11-03T23:11:31.844Z,24.07
2018-11-03T23:13:59.972Z,26.20
2018-11-03T23:16:28.160Z,24.43
2018-11-03T23:18:56.358Z,26.40
2018-11-03T23:21:24.495Z,24.33
2018-11-03T23:23:52.690Z,23.40
2018-11-03T23:26:22.240Z,24.30
2018-11-03T23:28:50.476Z,26.43
2018-11-03T23:31:18.695Z,26.10
2018-11-03T23:33:46.787Z,25.53
2018-11-03T23:36:14.947Z,25.53
2018-11-03T23:38:43.032Z,25.00
2018-11-03T23:41:11.203Z,25.23
2018-11-03T23:43:39.308Z,25.33
2018-11-03T23:46:07.480Z,24.20
2018-11-03T23:48:35.637Z,25.70
2018-11-03T23:51:03.782Z,24.97
2018-11-03T23:53:31.911Z,27.00
2018-11-03T23:56:00.066Z,25.03
2018-11-03T23:58:28.241Z,24.23
